HTMP

Mpanda Airport

Airport
ICAO code
HTMP
IATA Code
NPY
Summary
ICAO Region
AFI
ICAO Territory
Location

Mpanda, Katavi Region

Serving
Katavi Region
Elevation
3565 ft
Coordinates
6° 21' 20" S , 31° 4' 50" E
KCC
Metar
Observation
HTMP 070700Z 09008KT 9999 SKC 26/10 Q1020
Station
Mpanda Airport
Date/Time
2022-10-07 07:00:00
Wind direction
90°
Wind speed
08 kts
Lowest cloud amount
n/a
Temperature
26°C
Dew point
10°C
Humidity
36%
QNH
1020 hPa
Weather condition
n/a

Mpanda Airport is an airport in western Tanzania serving the town of Mpanda and the surrounding Katavi Region.

Climatology

Tropical Savanna climate (Köppen climate classification Aw)

Airport map

Aerial View

SKYbrary Partners:

Safety knowledge contributed by: